sensor_id;sensor_type;location;lat;lon;timestamp;pressure;altitude;pressure_sealevel;temperature;humidity
25430;BME280;13360;48.152;-1.788;2022-10-14T00:00:17;103343.63;;;18.08;100.00
25430;BME280;13360;48.152;-1.788;2022-10-14T00:02:43;103342.78;;;18.08;100.00
25430;BME280;13360;48.152;-1.788;2022-10-14T00:05:08;103338.31;;;18.07;100.00
25430;BME280;13360;48.152;-1.788;2022-10-14T00:07:37;103322.75;;;17.75;100.00
25430;BME280;13360;48.152;-1.788;2022-10-14T00:10:04;103350.72;;;17.75;100.00
25430;BME280;13360;48.152;-1.788;2022-10-14T00:12:29;103376.41;;;17.67;100.00
25430;BME280;13360;48.152;-1.788;2022-10-14T00:14:55;103421.41;;;17.65;100.00
25430;BME280;13360;48.152;-1.788;2022-10-14T00:17:21;103439.56;;;17.63;100.00
25430;BME280;13360;48.152;-1.788;2022-10-14T00:19:46;103464.16;;;17.61;100.00
25430;BME280;13360;48.152;-1.788;2022-10-14T00:22:11;103493.53;;;17.58;100.00
25430;BME280;13360;48.152;-1.788;2022-10-14T00:24:38;103504.97;;;17.57;100.00
25430;BME280;13360;48.152;-1.788;2022-10-14T00:27:03;103535.16;;;17.50;100.00
25430;BME280;13360;48.152;-1.788;2022-10-14T00:29:29;103556.69;;;17.54;100.00
25430;BME280;13360;48.152;-1.788;2022-10-14T00:31:54;103572.34;;;17.55;100.00
25430;BME280;13360;48.152;-1.788;2022-10-14T00:34:19;103576.25;;;17.54;100.00
25430;BME280;13360;48.152;-1.788;2022-10-14T00:36:45;103583.78;;;17.54;100.00
25430;BME280;13360;48.152;-1.788;2022-10-14T00:39:11;103600.28;;;17.55;100.00
25430;BME280;13360;48.152;-1.788;2022-10-14T00:41:36;103598.59;;;17.59;100.00
25430;BME280;13360;48.152;-1.788;2022-10-14T00:46:38;103579.03;;;17.64;100.00
25430;BME280;13360;48.152;-1.788;2022-10-14T00:49:10;103562.91;;;17.72;100.00
25430;BME280;13360;48.152;-1.788;2022-10-14T00:51:38;103537.47;;;17.73;100.00
25430;BME280;13360;48.152;-1.788;2022-10-14T00:54:04;103491.06;;;17.72;100.00
25430;BME280;13360;48.152;-1.788;2022-10-14T00:56:30;103461.16;;;17.73;100.00
25430;BME280;13360;48.152;-1.788;2022-10-14T00:58:56;103443.25;;;17.74;100.00
25430;BME280;13360;48.152;-1.788;2022-10-14T01:01:22;103408.03;;;17.73;100.00
25430;BME280;13360;48.152;-1.788;2022-10-14T01:03:47;103377.56;;;17.71;100.00
25430;BME280;13360;48.152;-1.788;2022-10-14T01:09:39;103315.22;;;17.71;100.00
25430;BME280;13360;48.152;-1.788;2022-10-14T01:15:05;103274.94;;;17.66;100.00
25430;BME280;13360;48.152;-1.788;2022-10-14T01:17:48;103250.38;;;17.58;100.00
25430;BME280;13360;48.152;-1.788;2022-10-14T01:31:22;103237.78;;;17.61;100.00
25430;BME280;13360;48.152;-1.788;2022-10-14T01:33:53;103226.34;;;17.57;100.00
25430;BME280;13360;48.152;-1.788;2022-10-14T01:38:50;103220.75;;;17.57;100.00
25430;BME280;13360;48.152;-1.788;2022-10-14T01:41:25;103212.63;;;17.61;100.00
25430;BME280;13360;48.152;-1.788;2022-10-14T01:43:54;103200.91;;;17.59;100.00
25430;BME280;13360;48.152;-1.788;2022-10-14T01:46:23;103180.25;;;17.55;100.00
25430;BME280;13360;48.152;-1.788;2022-10-14T01:48:54;103171.31;;;17.53;100.00
25430;BME280;13360;48.152;-1.788;2022-10-14T01:51:27;103171.59;;;17.51;100.00
25430;BME280;13360;48.152;-1.788;2022-10-14T01:54:01;103164.91;;;17.52;100.00
25430;BME280;13360;48.152;-1.788;2022-10-14T01:56:31;103159.03;;;17.54;100.00
25430;BME280;13360;48.152;-1.788;2022-10-14T01:58:58;103150.91;;;17.57;100.00
25430;BME280;13360;48.152;-1.788;2022-10-14T02:01:25;103147.25;;;17.57;100.00
25430;BME280;13360;48.152;-1.788;2022-10-14T02:03:50;103142.50;;;17.57;100.00
25430;BME280;13360;48.152;-1.788;2022-10-14T02:06:24;103132.47;;;17.56;100.00
25430;BME280;13360;48.152;-1.788;2022-10-14T02:09:06;103123.81;;;17.53;100.00
25430;BME280;13360;48.152;-1.788;2022-10-14T02:14:19;103119.06;;;17.53;100.00
25430;BME280;13360;48.152;-1.788;2022-10-14T02:18:11;103123.53;;;17.54;100.00
25430;BME280;13360;48.152;-1.788;2022-10-14T02:22:44;103123.25;;;17.56;100.00
25430;BME280;13360;48.152;-1.788;2022-10-14T02:25:18;103100.34;;;17.49;100.00
25430;BME280;13360;48.152;-1.788;2022-10-14T02:27:47;103110.13;;;17.46;100.00
25430;BME280;13360;48.152;-1.788;2022-10-14T02:30:14;103129.97;;;17.50;100.00
25430;BME280;13360;48.152;-1.788;2022-10-14T02:32:41;103124.09;;;17.46;100.00
25430;BME280;13360;48.152;-1.788;2022-10-14T02:35:08;103136.94;;;17.47;100.00
25430;BME280;13360;48.152;-1.788;2022-10-14T02:37:35;103130.53;;;17.47;100.00
25430;BME280;13360;48.152;-1.788;2022-10-14T02:40:16;103125.50;;;17.44;100.00
25430;BME280;13360;48.152;-1.788;2022-10-14T02:42:42;103125.78;;;17.47;100.00
25430;BME280;13360;48.152;-1.788;2022-10-14T02:45:08;103136.13;;;17.47;100.00
25430;BME280;13360;48.152;-1.788;2022-10-14T02:47:34;103144.78;;;17.45;100.00
25430;BME280;13360;48.152;-1.788;2022-10-14T02:50:00;103151.03;;;17.06;100.00
25430;BME280;13360;48.152;-1.788;2022-10-14T02:52:25;103252.13;;;17.03;100.00
25430;BME280;13360;48.152;-1.788;2022-10-14T02:54:51;103312.16;;;17.01;100.00
25430;BME280;13360;48.152;-1.788;2022-10-14T02:57:16;103369.41;;;16.98;100.00
25430;BME280;13360;48.152;-1.788;2022-10-14T02:59:42;103400.41;;;16.97;100.00
25430;BME280;13360;48.152;-1.788;2022-10-14T03:02:07;103440.31;;;16.97;100.00
25430;BME280;13360;48.152;-1.788;2022-10-14T03:04:33;103481.09;;;16.98;100.00
25430;BME280;13360;48.152;-1.788;2022-10-14T03:06:59;103500.63;;;16.98;100.00
25430;BME280;13360;48.152;-1.788;2022-10-14T03:09:24;103522.97;;;16.98;100.00
25430;BME280;13360;48.152;-1.788;2022-10-14T03:11:49;103531.34;;;16.98;100.00
25430;BME280;13360;48.152;-1.788;2022-10-14T03:14:15;103549.22;;;16.97;100.00
25430;BME280;13360;48.152;-1.788;2022-10-14T03:16:40;103566.53;;;16.99;100.00
25430;BME280;13360;48.152;-1.788;2022-10-14T03:19:05;103565.97;;;16.97;100.00
25430;BME280;13360;48.152;-1.788;2022-10-14T03:21:31;103586.66;;;17.01;100.00
25430;BME280;13360;48.152;-1.788;2022-10-14T03:23:57;103580.22;;;17.01;100.00
25430;BME280;13360;48.152;-1.788;2022-10-14T03:26:22;103584.69;;;17.02;100.00
25430;BME280;13360;48.152;-1.788;2022-10-14T03:28:48;103584.41;;;16.98;100.00
25430;BME280;13360;48.152;-1.788;2022-10-14T03:31:13;103598.38;;;16.98;100.00
25430;BME280;13360;48.152;-1.788;2022-10-14T03:33:38;103606.75;;;16.98;100.00
25430;BME280;13360;48.152;-1.788;2022-10-14T03:36:04;103598.91;;;16.95;100.00
25430;BME280;13360;48.152;-1.788;2022-10-14T03:38:29;103603.66;;;16.95;100.00
25430;BME280;13360;48.152;-1.788;2022-10-14T03:40:54;103608.41;;;16.94;100.00
25430;BME280;13360;48.152;-1.788;2022-10-14T03:43:20;103606.16;;;16.96;100.00
25430;BME280;13360;48.152;-1.788;2022-10-14T03:45:45;103597.22;;;16.94;100.00
25430;BME280;13360;48.152;-1.788;2022-10-14T03:48:10;103589.41;;;16.91;100.00
25430;BME280;13360;48.152;-1.788;2022-10-14T03:50:36;103578.22;;;16.91;100.00
25430;BME280;13360;48.152;-1.788;2022-10-14T03:53:01;103574.59;;;16.91;100.00
25430;BME280;13360;48.152;-1.788;2022-10-14T03:55:27;103552.50;;;16.84;100.00
25430;BME280;13360;48.152;-1.788;2022-10-14T03:57:52;103542.16;;;16.85;100.00
25430;BME280;13360;48.152;-1.788;2022-10-14T04:00:18;103543.84;;;16.86;100.00
25430;BME280;13360;48.152;-1.788;2022-10-14T04:02:43;103529.63;;;16.87;100.00
25430;BME280;13360;48.152;-1.788;2022-10-14T04:05:09;103509.81;;;16.89;100.00
25430;BME280;13360;48.152;-1.788;2022-10-14T04:07:35;103486.66;;;16.88;100.00
25430;BME280;13360;48.152;-1.788;2022-10-14T04:10:00;103471.84;;;16.88;100.00
25430;BME280;13360;48.152;-1.788;2022-10-14T04:12:25;103445.28;;;16.85;100.00
25430;BME280;13360;48.152;-1.788;2022-10-14T04:14:51;103438.88;;;16.85;100.00
25430;BME280;13360;48.152;-1.788;2022-10-14T04:17:17;103417.66;;;16.84;100.00
25430;BME280;13360;48.152;-1.788;2022-10-14T04:19:42;103413.75;;;16.85;100.00
25430;BME280;13360;48.152;-1.788;2022-10-14T04:22:08;103391.69;;;16.83;100.00
25430;BME280;13360;48.152;-1.788;2022-10-14T04:24:34;103373.00;;;16.84;100.00
25430;BME280;13360;48.152;-1.788;2022-10-14T04:26:59;103353.72;;;16.82;100.00
25430;BME280;13360;48.152;-1.788;2022-10-14T04:29:24;103338.66;;;16.83;100.00
25430;BME280;13360;48.152;-1.788;2022-10-14T04:31:50;103329.16;;;16.84;100.00
25430;BME280;13360;48.152;-1.788;2022-10-14T04:34:15;103318.00;;;16.84;100.00
25430;BME280;13360;48.152;-1.788;2022-10-14T04:36:40;103297.91;;;16.82;100.00
25430;BME280;13360;48.152;-1.788;2022-10-14T04:39:06;103289.81;;;16.81;100.00
25430;BME280;13360;48.152;-1.788;2022-10-14T04:41:31;103283.41;;;16.80;100.00
25430;BME280;13360;48.152;-1.788;2022-10-14T04:43:57;103274.19;;;16.80;100.00
25430;BME280;13360;48.152;-1.788;2022-10-14T04:46:22;103279.47;;;16.81;100.00
25430;BME280;13360;48.152;-1.788;2022-10-14T04:48:48;103283.41;;;16.80;100.00
25430;BME280;13360;48.152;-1.788;2022-10-14T04:51:13;103273.63;;;16.83;100.00
25430;BME280;13360;48.152;-1.788;2022-10-14T04:53:39;103271.66;;;16.83;100.00
25430;BME280;13360;48.152;-1.788;2022-10-14T04:56:04;103255.47;;;16.80;100.00
25430;BME280;13360;48.152;-1.788;2022-10-14T04:58:30;103256.59;;;16.84;100.00
25430;BME280;13360;48.152;-1.788;2022-10-14T05:00:55;103237.34;;;16.83;100.00
25430;BME280;13360;48.152;-1.788;2022-10-14T05:03:21;103228.41;;;16.81;100.00
25430;BME280;13360;48.152;-1.788;2022-10-14T05:05:46;103206.06;;;16.81;100.00
25430;BME280;13360;48.152;-1.788;2022-10-14T05:08:11;103204.13;;;16.86;100.00
25430;BME280;13360;48.152;-1.788;2022-10-14T05:10:37;103186.25;;;16.92;100.00
25430;BME280;13360;48.152;-1.788;2022-10-14T05:13:03;103180.13;;;16.95;100.00
25430;BME280;13360;48.152;-1.788;2022-10-14T05:15:28;103165.03;;;16.96;100.00
25430;BME280;13360;48.152;-1.788;2022-10-14T05:17:54;103114.25;;;16.79;100.00
25430;BME280;13360;48.152;-1.788;2022-10-14T05:20:20;103112.59;;;16.78;100.00
25430;BME280;13360;48.152;-1.788;2022-10-14T05:22:45;103140.50;;;16.78;100.00
25430;BME280;13360;48.152;-1.788;2022-10-14T05:25:10;103140.50;;;16.73;100.00
25430;BME280;13360;48.152;-1.788;2022-10-14T05:27:36;103129.34;;;16.48;100.00
25430;BME280;13360;48.152;-1.788;2022-10-14T05:30:02;103180.94;;;16.55;100.00
25430;BME280;13360;48.152;-1.788;2022-10-14T05:32:27;103215.53;;;16.54;100.00
25430;BME280;13360;48.152;-1.788;2022-10-14T05:34:53;103248.19;;;16.54;100.00
25430;BME280;13360;48.152;-1.788;2022-10-14T05:37:18;103278.88;;;16.59;100.00
25430;BME280;13360;48.152;-1.788;2022-10-14T05:39:43;103300.91;;;16.65;100.00
25430;BME280;13360;48.152;-1.788;2022-10-14T05:42:08;103298.41;;;16.64;100.00
25430;BME280;13360;48.152;-1.788;2022-10-14T05:44:34;103303.22;;;16.68;100.00
25430;BME280;13360;48.152;-1.788;2022-10-14T05:46:59;103305.44;;;16.71;100.00
25430;BME280;13360;48.152;-1.788;2022-10-14T05:49:25;103312.97;;;16.71;100.00
25430;BME280;13360;48.152;-1.788;2022-10-14T05:51:50;103335.31;;;16.76;100.00
25430;BME280;13360;48.152;-1.788;2022-10-14T05:54:15;103322.94;;;16.57;100.00
25430;BME280;13360;48.152;-1.788;2022-10-14T05:56:41;103325.41;;;16.38;100.00
25430;BME280;13360;48.152;-1.788;2022-10-14T05:59:08;103371.44;;;16.40;100.00
25430;BME280;13360;48.152;-1.788;2022-10-14T06:01:33;103386.22;;;16.41;100.00
25430;BME280;13360;48.152;-1.788;2022-10-14T06:04:00;103411.09;;;16.48;100.00
25430;BME280;13360;48.152;-1.788;2022-10-14T06:06:26;103392.63;;;16.36;100.00
25430;BME280;13360;48.152;-1.788;2022-10-14T06:08:53;103390.38;;;16.28;100.00
25430;BME280;13360;48.152;-1.788;2022-10-14T06:11:19;103384.50;;;16.25;100.00
25430;BME280;13360;48.152;-1.788;2022-10-14T06:13:44;103377.75;;;16.15;100.00
25430;BME280;13360;48.152;-1.788;2022-10-14T06:16:10;103426.00;;;16.21;100.00
25430;BME280;13360;48.152;-1.788;2022-10-14T06:18:36;103426.06;;;16.26;100.00
25430;BME280;13360;48.152;-1.788;2022-10-14T06:21:02;103418.19;;;16.23;100.00
25430;BME280;13360;48.152;-1.788;2022-10-14T06:23:28;103418.56;;;16.37;100.00
25430;BME280;13360;48.152;-1.788;2022-10-14T06:25:54;103409.34;;;16.36;100.00
25430;BME280;13360;48.152;-1.788;2022-10-14T06:28:19;103374.19;;;16.25;100.00
25430;BME280;13360;48.152;-1.788;2022-10-14T06:30:52;103363.59;;;16.27;100.00
25430;BME280;13360;48.152;-1.788;2022-10-14T06:33:19;103368.63;;;16.30;100.00
25430;BME280;13360;48.152;-1.788;2022-10-14T06:35:45;103358.56;;;16.24;100.00
25430;BME280;13360;48.152;-1.788;2022-10-14T06:38:10;103337.56;;;16.11;100.00
25430;BME280;13360;48.152;-1.788;2022-10-14T06:40:36;103352.06;;;16.13;100.00
25430;BME280;13360;48.152;-1.788;2022-10-14T06:43:01;103370.78;;;16.23;100.00
25430;BME280;13360;48.152;-1.788;2022-10-14T06:45:26;103361.59;;;16.23;100.00
25430;BME280;13360;48.152;-1.788;2022-10-14T06:47:52;103362.97;;;16.20;100.00
25430;BME280;13360;48.152;-1.788;2022-10-14T06:50:17;103373.00;;;16.21;100.00
25430;BME280;13360;48.152;-1.788;2022-10-14T06:52:46;103395.41;;;16.31;100.00
25430;BME280;13360;48.152;-1.788;2022-10-14T06:55:11;103387.03;;;16.31;100.00
25430;BME280;13360;48.152;-1.788;2022-10-14T06:57:37;103368.84;;;16.24;100.00
25430;BME280;13360;48.152;-1.788;2022-10-14T07:00:04;103383.09;;;16.27;100.00
25430;BME280;13360;48.152;-1.788;2022-10-14T07:02:30;103386.44;;;16.24;100.00
25430;BME280;13360;48.152;-1.788;2022-10-14T07:04:55;103367.41;;;16.11;100.00
25430;BME280;13360;48.152;-1.788;2022-10-14T07:07:20;103417.63;;;16.21;100.00
25430;BME280;13360;48.152;-1.788;2022-10-14T07:09:46;103406.53;;;16.26;100.00
25430;BME280;13360;48.152;-1.788;2022-10-14T07:12:11;103417.13;;;16.24;100.00
25430;BME280;13360;48.152;-1.788;2022-10-14T07:14:36;103408.69;;;16.19;100.00
25430;BME280;13360;48.152;-1.788;2022-10-14T07:17:02;103372.88;;;15.96;100.00
25430;BME280;13360;48.152;-1.788;2022-10-14T07:19:27;103427.25;;;15.98;100.00
25430;BME280;13360;48.152;-1.788;2022-10-14T07:21:53;103455.19;;;16.03;100.00
25430;BME280;13360;48.152;-1.788;2022-10-14T07:24:18;103489.53;;;16.14;100.00
25430;BME280;13360;48.152;-1.788;2022-10-14T07:26:43;103522.03;;;16.35;100.00
25430;BME280;13360;48.152;-1.788;2022-10-14T07:29:09;103493.03;;;16.36;100.00
25430;BME280;13360;48.152;-1.788;2022-10-14T07:31:34;103471.25;;;16.28;100.00
25430;BME280;13360;48.152;-1.788;2022-10-14T07:34:00;103482.63;;;16.22;100.00
25430;BME280;13360;48.152;-1.788;2022-10-14T07:36:26;103497.41;;;16.22;100.00
25430;BME280;13360;48.152;-1.788;2022-10-14T07:38:51;103525.94;;;16.34;100.00
25430;BME280;13360;48.152;-1.788;2022-10-14T07:41:19;103524.31;;;16.43;100.00
25430;BME280;13360;48.152;-1.788;2022-10-14T07:43:47;103528.53;;;16.46;100.00
25430;BME280;13360;48.152;-1.788;2022-10-14T07:46:15;103528.28;;;16.48;100.00
25430;BME280;13360;48.152;-1.788;2022-10-14T07:48:42;103515.38;;;16.41;100.00
25430;BME280;13360;48.152;-1.788;2022-10-14T07:51:08;103527.31;;;16.32;100.00
25430;BME280;13360;48.152;-1.788;2022-10-14T07:53:34;103546.88;;;16.37;100.00
25430;BME280;13360;48.152;-1.788;2022-10-14T07:56:00;103579.00;;;16.44;100.00
25430;BME280;13360;48.152;-1.788;2022-10-14T07:58:28;103577.94;;;16.45;100.00
25430;BME280;13360;48.152;-1.788;2022-10-14T08:00:55;103582.44;;;16.52;100.00
25430;BME280;13360;48.152;-1.788;2022-10-14T08:03:22;103564.75;;;16.41;100.00
25430;BME280;13360;48.152;-1.788;2022-10-14T08:05:48;103567.13;;;16.22;100.00
25430;BME280;13360;48.152;-1.788;2022-10-14T08:08:16;103602.81;;;16.20;100.00
25430;BME280;13360;48.152;-1.788;2022-10-14T08:10:42;103647.00;;;16.33;100.00
25430;BME280;13360;48.152;-1.788;2022-10-14T08:13:07;103676.91;;;16.43;100.00
25430;BME280;13360;48.152;-1.788;2022-10-14T08:15:35;103691.50;;;16.50;100.00
25430;BME280;13360;48.152;-1.788;2022-10-14T08:18:03;103695.19;;;16.56;100.00
25430;BME280;13360;48.152;-1.788;2022-10-14T08:20:29;103701.38;;;16.63;100.00
25430;BME280;13360;48.152;-1.788;2022-10-14T08:22:54;103688.22;;;16.58;100.00
25430;BME280;13360;48.152;-1.788;2022-10-14T08:25:20;103700.19;;;16.54;100.00
25430;BME280;13360;48.152;-1.788;2022-10-14T08:27:48;103709.56;;;16.42;100.00
25430;BME280;13360;48.152;-1.788;2022-10-14T08:30:14;103756.31;;;16.57;100.00
25430;BME280;13360;48.152;-1.788;2022-10-14T08:32:39;103761.88;;;16.57;100.00
25430;BME280;13360;48.152;-1.788;2022-10-14T08:35:05;103765.78;;;16.56;100.00
25430;BME280;13360;48.152;-1.788;2022-10-14T08:37:31;103801.00;;;16.62;100.00
25430;BME280;13360;48.152;-1.788;2022-10-14T08:39:56;103822.41;;;16.79;100.00
25430;BME280;13360;48.152;-1.788;2022-10-14T08:45:24;103847.94;;;16.92;100.00
25430;BME280;13360;48.152;-1.788;2022-10-14T08:47:52;103838.72;;;16.92;100.00
25430;BME280;13360;48.152;-1.788;2022-10-14T08:50:47;103872.25;;;16.92;100.00
25430;BME280;13360;48.152;-1.788;2022-10-14T08:53:19;103886.19;;;16.92;100.00
25430;BME280;13360;48.152;-1.788;2022-10-14T08:55:52;103900.47;;;16.95;100.00
25430;BME280;13360;48.152;-1.788;2022-10-14T08:58:24;103922.91;;;17.05;100.00
25430;BME280;13360;48.152;-1.788;2022-10-14T09:00:53;103924.34;;;17.08;100.00
25430;BME280;13360;48.152;-1.788;2022-10-14T09:03:24;103960.22;;;17.21;100.00
25430;BME280;13360;48.152;-1.788;2022-10-14T09:05:59;103980.91;;;17.25;100.00
25430;BME280;13360;48.152;-1.788;2022-10-14T09:08:33;104003.84;;;17.27;100.00
25430;BME280;13360;48.152;-1.788;2022-10-14T09:11:00;104023.69;;;17.26;100.00
25430;BME280;13360;48.152;-1.788;2022-10-14T09:13:36;104040.44;;;17.26;100.00
25430;BME280;13360;48.152;-1.788;2022-10-14T09:16:08;104073.97;;;17.26;100.00
25430;BME280;13360;48.152;-1.788;2022-10-14T09:18:39;104096.41;;;17.31;100.00
25430;BME280;13360;48.152;-1.788;2022-10-14T09:21:37;104114.06;;;17.36;100.00
25430;BME280;13360;48.152;-1.788;2022-10-14T09:24:12;104140.31;;;17.35;100.00
25430;BME280;13360;48.152;-1.788;2022-10-14T09:26:40;104170.78;;;17.37;100.00
25430;BME280;13360;48.152;-1.788;2022-10-14T09:31:51;104210.56;;;17.44;100.00
25430;BME280;13360;48.152;-1.788;2022-10-14T09:34:19;104207.75;;;17.44;100.00
25430;BME280;13360;48.152;-1.788;2022-10-14T09:36:48;104232.91;;;17.44;100.00
25430;BME280;13360;48.152;-1.788;2022-10-14T09:39:15;104279.47;;;17.55;100.00
25430;BME280;13360;48.152;-1.788;2022-10-14T09:41:42;104303.25;;;17.58;100.00
25430;BME280;13360;48.152;-1.788;2022-10-14T09:44:20;104326.28;;;17.65;100.00
25430;BME280;13360;48.152;-1.788;2022-10-14T09:46:55;104376.03;;;17.80;100.00
25430;BME280;13360;48.152;-1.788;2022-10-14T09:49:42;104407.16;;;17.88;100.00
25430;BME280;13360;48.152;-1.788;2022-10-14T09:52:20;104433.81;;;17.91;100.00
25430;BME280;13360;48.152;-1.788;2022-10-14T09:54:55;104445.56;;;17.93;100.00
25430;BME280;13360;48.152;-1.788;2022-10-14T09:57:22;104468.34;;;18.02;100.00
25430;BME280;13360;48.152;-1.788;2022-10-14T09:59:58;104502.31;;;18.10;100.00
25430;BME280;13360;48.152;-1.788;2022-10-14T10:02:35;104537.84;;;18.10;100.00
25430;BME280;13360;48.152;-1.788;2022-10-14T10:05:22;104569.06;;;18.18;100.00
25430;BME280;13360;48.152;-1.788;2022-10-14T10:08:16;104580.13;;;18.30;100.00
25430;BME280;13360;48.152;-1.788;2022-10-14T10:11:03;104609.06;;;18.36;100.00
25430;BME280;13360;48.152;-1.788;2022-10-14T10:16:02;104637.06;;;18.36;100.00
25430;BME280;13360;48.152;-1.788;2022-10-14T10:18:28;104657.25;;;18.38;100.00
25430;BME280;13360;48.152;-1.788;2022-10-14T10:21:15;104663.50;;;18.45;100.00
25430;BME280;13360;48.152;-1.788;2022-10-14T10:23:50;104686.50;;;18.47;100.00
25430;BME280;13360;48.152;-1.788;2022-10-14T10:26:20;104716.69;;;18.45;100.00
25430;BME280;13360;48.152;-1.788;2022-10-14T10:28:50;104736.81;;;18.42;100.00
25430;BME280;13360;48.152;-1.788;2022-10-14T10:36:53;104795.28;;;18.55;100.00
25430;BME280;13360;48.152;-1.788;2022-10-14T10:39:42;104817.97;;;18.70;100.00
25430;BME280;13360;48.152;-1.788;2022-10-14T10:42:34;104829.09;;;18.82;100.00
25430;BME280;13360;48.152;-1.788;2022-10-14T10:46:19;104843.63;;;18.96;100.00
25430;BME280;13360;48.152;-1.788;2022-10-14T10:56:30;104842.59;;;19.02;100.00
25430;BME280;13360;48.152;-1.788;2022-10-14T11:01:55;104843.38;;;18.97;100.00
25430;BME280;13360;48.152;-1.788;2022-10-14T11:04:32;104854.22;;;18.94;100.00
25430;BME280;13360;48.152;-1.788;2022-10-14T11:10:14;104854.13;;;18.88;100.00
25430;BME280;13360;48.152;-1.788;2022-10-14T11:18:48;104873.34;;;18.97;100.00
25430;BME280;13360;48.152;-1.788;2022-10-14T11:21:23;104867.28;;;19.05;100.00
25430;BME280;13360;48.152;-1.788;2022-10-14T11:24:02;104860.84;;;19.04;100.00
25430;BME280;13360;48.152;-1.788;2022-10-14T11:34:42;104858.97;;;19.10;100.00
25430;BME280;13360;48.152;-1.788;2022-10-14T11:50:55;104696.41;;;19.32;100.00
25430;BME280;13360;48.152;-1.788;2022-10-14T11:53:46;104650.72;;;19.31;100.00
25430;BME280;13360;48.152;-1.788;2022-10-14T11:56:29;104627.38;;;19.47;100.00
25430;BME280;13360;48.152;-1.788;2022-10-14T11:59:01;104581.34;;;19.43;100.00
25430;BME280;13360;48.152;-1.788;2022-10-14T12:01:30;104508.66;;;19.37;100.00
25430;BME280;13360;48.152;-1.788;2022-10-14T12:04:01;104479.25;;;19.39;100.00
25430;BME280;13360;48.152;-1.788;2022-10-14T12:06:39;104419.81;;;19.37;100.00
25430;BME280;13360;48.152;-1.788;2022-10-14T12:09:15;104380.75;;;19.31;100.00
25430;BME280;13360;48.152;-1.788;2022-10-14T12:11:52;104345.75;;;19.33;100.00
25430;BME280;13360;48.152;-1.788;2022-10-14T12:14:33;104305.88;;;19.21;100.00
25430;BME280;13360;48.152;-1.788;2022-10-14T12:17:16;104302.84;;;19.33;100.00
25430;BME280;13360;48.152;-1.788;2022-10-14T12:19:43;104280.47;;;19.38;100.00
25430;BME280;13360;48.152;-1.788;2022-10-14T12:22:17;104242.06;;;19.38;100.00
25430;BME280;13360;48.152;-1.788;2022-10-14T12:24:56;104219.66;;;19.38;100.00
25430;BME280;13360;48.152;-1.788;2022-10-14T12:27:23;104176.72;;;19.33;100.00
25430;BME280;13360;48.152;-1.788;2022-10-14T12:29:51;104161.91;;;19.37;100.00
25430;BME280;13360;48.152;-1.788;2022-10-14T12:32:18;104120.38;;;19.34;100.00
25430;BME280;13360;48.152;-1.788;2022-10-14T12:34:55;104100.22;;;19.37;100.00
25430;BME280;13360;48.152;-1.788;2022-10-14T12:39:50;104062.63;;;19.33;100.00
25430;BME280;13360;48.152;-1.788;2022-10-14T12:42:17;104050.28;;;19.34;100.00
25430;BME280;13360;48.152;-1.788;2022-10-14T12:44:49;104026.75;;;19.30;100.00
25430;BME280;13360;48.152;-1.788;2022-10-14T12:47:28;104015.53;;;19.35;100.00
25430;BME280;13360;48.152;-1.788;2022-10-14T12:49:57;104004.59;;;19.34;100.00
25430;BME280;13360;48.152;-1.788;2022-10-14T12:52:37;103985.28;;;19.37;100.00
25430;BME280;13360;48.152;-1.788;2022-10-14T12:55:18;103971.81;;;19.34;100.00
25430;BME280;13360;48.152;-1.788;2022-10-14T12:57:55;103974.63;;;19.49;100.00
25430;BME280;13360;48.152;-1.788;2022-10-14T13:02:48;103951.09;;;19.50;100.00
25430;BME280;13360;48.152;-1.788;2022-10-14T13:05:41;103970.72;;;19.76;100.00
25430;BME280;13360;48.152;-1.788;2022-10-14T13:22:10;103835.84;;;19.67;100.00
25430;BME280;13360;48.152;-1.788;2022-10-14T13:24:38;103824.66;;;19.62;100.00
25430;BME280;13360;48.152;-1.788;2022-10-14T13:27:21;103827.44;;;19.57;100.00
25430;BME280;13360;48.152;-1.788;2022-10-14T13:35:30;103801.94;;;19.64;100.00
25430;BME280;13360;48.152;-1.788;2022-10-14T13:38:00;103786.28;;;19.58;100.00
25430;BME280;13360;48.152;-1.788;2022-10-14T13:40:35;103800.84;;;19.60;100.00
25430;BME280;13360;48.152;-1.788;2022-10-14T13:43:35;103811.19;;;19.64;100.00
25430;BME280;13360;48.152;-1.788;2022-10-14T13:46:08;103817.91;;;19.68;100.00
25430;BME280;13360;48.152;-1.788;2022-10-14T13:48:40;103849.59;;;19.79;100.00
25430;BME280;13360;48.152;-1.788;2022-10-14T13:53:57;103851.53;;;19.84;100.00
25430;BME280;13360;48.152;-1.788;2022-10-14T13:56:28;103870.84;;;19.95;100.00
25430;BME280;13360;48.152;-1.788;2022-10-14T13:58:55;103856.50;;;19.97;100.00
25430;BME280;13360;48.152;-1.788;2022-10-14T14:01:37;103849.22;;;20.01;100.00
25430;BME280;13360;48.152;-1.788;2022-10-14T14:04:03;103832.38;;;20.06;100.00
25430;BME280;13360;48.152;-1.788;2022-10-14T14:06:30;103823.13;;;20.00;100.00
25430;BME280;13360;48.152;-1.788;2022-10-14T14:08:58;103797.94;;;19.85;100.00
25430;BME280;13360;48.152;-1.788;2022-10-14T14:11:26;103797.97;;;19.80;100.00
25430;BME280;13360;48.152;-1.788;2022-10-14T14:14:01;103817.31;;;19.82;100.00
25430;BME280;13360;48.152;-1.788;2022-10-14T14:18:55;103816.25;;;19.42;100.00
25430;BME280;13360;48.152;-1.788;2022-10-14T14:21:23;103876.81;;;19.38;100.00
25430;BME280;13360;48.152;-1.788;2022-10-14T14:23:51;103918.00;;;19.27;100.00
25430;BME280;13360;48.152;-1.788;2022-10-14T14:26:17;103947.72;;;19.18;100.00
25430;BME280;13360;48.152;-1.788;2022-10-14T14:28:45;103982.47;;;19.17;100.00
25430;BME280;13360;48.152;-1.788;2022-10-14T14:31:15;104019.44;;;19.19;100.00
25430;BME280;13360;48.152;-1.788;2022-10-14T14:33:43;104057.56;;;19.25;100.00